Raw Observation Data from the Birmingham International Airport

SAUS70 KWBC 162300 RRB
METAR KBHM 162253Z 03014G20KT 5SM TSRA BKN048 OVC065 11/10 A2990 RMK AO2
     PK WND 34032/2155 WSHFT 2140 SLP122 TS OHD-E MOV E OCNL
     LTGICCCCA P0007 T01110100 $
SPUS70 KWBC 162201
SPECI KBHM 162158Z 34017G32KT 10SM -TSRA SCT017 BKN055 OVC080 12/11
     A2996 RMK AO2 PK WND 34032/2155 WSHFT 2140 P0000 $
SAUS70 KWBC 162200 RRA
METAR KBHM 162153Z 35023G40KT 10SM -TSRA BKN015 OVC028CB 13/12 A2996 RMK
     AO2 PK WND 24059/2109 WSHFT 2102 TSB04B11RAB11GRB11E19 SLP139
     TS OHD MOV RPDLY E OCNL LTGICCC ALQ P0019 T01330117 $
SPUS70 KWBC 162127
SPECI KBHM 162120Z 23031G43KT 3SM TSRA SCT017 OVC050CB 16/15 A2982 RMK
     AO2 PK WND 24059/2109 WSHFT 2102 TSB04B11RAB11GRB11E19
     R05VR/2000VP6000FT TS OHD MOV RPDLY E GR 3/4 E FRQ LTGICCG
     ALQ P0015 $
SPUS70 KWBC 162123
SPECI KBHM 162116Z 22029G59KT 1 1/2SM +TSGRRA SQ SCT017CB OVC065 15/14
     A2982 RMK AO2 PK WND 24059/2109 WSHFT 2102 TSB04B11RAB11GRB11
     R05VR/2000VP6000FT TS OHD MOV RPDLY E GR 3/4 E FRQ LTGICCG
     ALQ P0015 $
SPUS70 KWBC 162121
SPECI KBHM 162110Z 24044G59KT 3/4SM HZ SQ SCT060CB BKN085 OVC300 24/16
     A2983 RMK AO2 PK WND 24059/2109 TSB04 PRESRR TS W MOV RPDLY E
     FRQ LTGICCG SW-NW P0008
SPUS70 KWBC 162109
SPECI KBHM 162104Z 17019G26KT 10SM VCTS SCT060CB BKN085 OVC300 25/15
     A2967 RMK AO2 PK WND 15026/2059 TSB04 PRESFR TS W MOV RPDLY E
     FRQ LTGICCG SW-NW
SAUS70 KWBC 162100
METAR KBHM 162053Z 19020G28KT 10SM SCT055CB BKN070 OVC300 26/15 A2975
     RMK AO2 PK WND 20029/2018 PRESFR SLP067 CB W MOV RPDLY E
     T02560150 58051
SAUS70 KWBC 162000 RRA
METAR KBHM 161953Z 20021G29KT 10SM SCT050 SCT065 26/16 A2984 RMK AO2 PK
     WND 20029/1944 SLP095 T02610156
SAUS70 KWBC 161900
METAR KBHM 161853Z 19018G24KT 10SM FEW050 SCT060 BKN085 26/16 A2986 RMK
     AO2 PK WND 21028/1812 SLP102 T02560161
SAUS70 KWBC 161800 RRA
METAR KBHM 161753Z 20015G24KT 10SM SCT029 BKN250 25/18 A2990 RMK AO2
     SLP119 60000 T02500178 10250 20194 58036
SPUS70 KWBC 161724
SPECI KBHM 161711Z 20016KT 10SM SCT022 BKN035 24/18 A2995 RMK AO2
     PRESFR
SPUS70 KWBC 161722 RRA
SPECI KBHM 161711Z 20016KT 10SM SCT022 BKN035 24/18 A2995 RMK AO2
     PRESFR
SAUS70 KWBC 161700 RRE
METAR KBHM 161653Z 22014KT 10SM SCT020 BKN025 OVC034 23/18 A2997 RMK AO2
     SLP142 T02280183
SAUS70 KWBC 161600
METAR KBHM 161553Z 21015G20KT 10SM BKN015 OVC020 22/19 A3000 RMK AO2
     SLP150 T02220189
SPUS70 KWBC 161505
SPECI KBHM 161501Z 20014KT 9SM BKN017 OVC021 21/19 A3001 RMK AO2
SAUS70 KWBC 161500 RRA
METAR KBHM 161453Z 20011KT 9SM BKN014 BKN019 OVC027 21/19 A3001 RMK AO2
     RAE13 SLP157 P0000 60000 T02060189 53017
SAUS70 KWBC 161400 RRA
METAR KBHM 161353Z 21010KT 7SM -RA BKN015 BKN022 OVC047 20/18 A3000 RMK
     AO2 RAB36 SLP151 P0000 T02000183
SAUS70 KWBC 161300
METAR KBHM 161253Z 18011KT 9SM BKN017 OVC036 20/18 A2997 RMK AO2 SLP143
     T02000183
SPUS70 KWBC 161238
SPECI KBHM 161225Z 20011KT 10SM SCT018 BKN025 OVC036 20/18 A2997 RMK
     AO2
SAUS70 KWBC 161200 RRA
METAR KBHM 161153Z 19010KT 9SM SCT014 BKN030 OVC038 20/18 A2996 RMK AO2
     SLP140 T02000183 10200 20194 58007
SPUS70 KWBC 161145
SPECI KBHM 161143Z 19011KT 9SM FEW012 BKN038 OVC049 19/18 A2996 RMK
     AO2
SPUS70 KWBC 161139
SPECI KBHM 161137Z 20009KT 8SM BKN014 BKN040 OVC050 19/18 A2997 RMK
     AO2
SAUS70 KWBC 161100
METAR KBHM 161053Z 20008KT 9SM SCT014 OVC036 19/18 A2997 RMK AO2 SLP142
     T01940183
SPUS70 KWBC 161031
SPECI KBHM 161029Z 20007KT 9SM FEW014 SCT020 OVC030 19/18 A2997 RMK
     AO2
SAUS70 KWBC 161000
METAR KBHM 160953Z 21008KT 9SM FEW018 OVC026 19/18 A2998 RMK AO2 SLP144
     T01940183
SAUS70 KWBC 160900 RRB
METAR KBHM 160853Z 20008KT 8SM BKN016 OVC020 19/18 A2998 RMK AO2 SLP146
     T01940183 58004
SPUS70 KWBC 160829
SPECI KBHM 160827Z 20007KT 8SM OVC016 19/18 A2999 RMK AO2
SAUS70 KWBC 160800 RRA
METAR KBHM 160753Z 21011KT 9SM OVC012 19/18 A2999 RMK AO2 SLP148
     T01940178
SAUS70 KWBC 160700
METAR KBHM 160653Z 20010KT 10SM OVC012 19/18 A3000 RMK AO2 SLP152
     T01940178
SPUS70 KWBC 160624
SPECI KBHM 160618Z 21010KT 10SM BKN014 19/18 A3000 RMK AO2
SAUS70 KWBC 160600 RRA
METAR KBHM 160553Z 21010KT 10SM CLR 20/18 A3000 RMK AO2 SLP151 T02000178
     10222 20200 402500178 58000
SAUS70 KWBC 160500 RRA
METAR KBHM 160453Z 21010KT 10SM FEW038 20/17 A3000 RMK AO2 SLP152
     T02000172
SAUS70 KWBC 160400 RRA
METAR KBHM 160353Z 26005KT 10SM FEW030 BKN040 BKN047 21/17 A3000 RMK AO2
     SLP153 T02060167
SAUS70 KWBC 160300 RRA
METAR KBHM 160253Z 20010KT 10SM BKN065 22/17 A3000 RMK AO2 SLP151
     T02170167 53011
SAUS70 KWBC 160200 RRA
METAR KBHM 160153Z 18010KT 10SM FEW075 22/16 A2998 RMK AO2 SLP147
     T02170161
SAUS70 KWBC 160100
METAR KBHM 160053Z 20007KT 10SM CLR 21/16 A2998 RMK AO2 SLP144
     T02110161
SAUS70 KWBC 160000 RRA
METAR KBHM 152353Z 20009KT 10SM FEW050 22/17 A2996 RMK AO2 SLP140
     T02220167 10250 20217 55001

USA.gov is the U.S. government's official web portal to all federal, state and local government web resources and services.